sensor_id;sensor_type;location;lat;lon;timestamp;pressure;altitude;pressure_sealevel;temperature;humidity
77685;BME280;66844;46.092;18.268;2023-04-24T00:00:06;98467.81;;;14.25;48.74
77685;BME280;66844;46.092;18.268;2023-04-24T00:00:39;98462.47;;;14.25;48.89
77685;BME280;66844;46.092;18.268;2023-04-24T00:01:11;98462.72;;;14.22;48.91
77685;BME280;66844;46.092;18.268;2023-04-24T00:01:43;98459.91;;;14.24;48.85
77685;BME280;66844;46.092;18.268;2023-04-24T00:02:14;98467.94;;;14.24;49.05
77685;BME280;66844;46.092;18.268;2023-04-24T00:02:45;98464.41;;;14.23;48.94
77685;BME280;66844;46.092;18.268;2023-04-24T00:03:17;98460.03;;;14.22;49.04
77685;BME280;66844;46.092;18.268;2023-04-24T00:03:51;98459.22;;;14.22;49.18
77685;BME280;66844;46.092;18.268;2023-04-24T00:04:22;98460.31;;;14.19;49.59
77685;BME280;66844;46.092;18.268;2023-04-24T00:04:56;98460.19;;;14.21;49.12
77685;BME280;66844;46.092;18.268;2023-04-24T00:05:26;98461.16;;;14.20;49.43
77685;BME280;66844;46.092;18.268;2023-04-24T00:05:57;98462.13;;;14.19;49.34
77685;BME280;66844;46.092;18.268;2023-04-24T00:06:29;98462.31;;;14.17;49.33
77685;BME280;66844;46.092;18.268;2023-04-24T00:07:03;98463.16;;;14.18;49.42
77685;BME280;66844;46.092;18.268;2023-04-24T00:07:34;98460.59;;;14.16;49.88
77685;BME280;66844;46.092;18.268;2023-04-24T00:08:04;98457.06;;;14.16;49.59
77685;BME280;66844;46.092;18.268;2023-04-24T00:08:35;98458.91;;;14.15;49.61
77685;BME280;66844;46.092;18.268;2023-04-24T00:09:06;98449.91;;;14.16;49.60
77685;BME280;66844;46.092;18.268;2023-04-24T00:09:37;98454.41;;;14.16;49.70
77685;BME280;66844;46.092;18.268;2023-04-24T00:10:08;98459.06;;;14.14;49.72
77685;BME280;66844;46.092;18.268;2023-04-24T00:10:39;98455.66;;;14.12;49.83
77685;BME280;66844;46.092;18.268;2023-04-24T00:11:10;98456.66;;;14.11;49.84
77685;BME280;66844;46.092;18.268;2023-04-24T00:11:41;98459.31;;;14.11;50.03
77685;BME280;66844;46.092;18.268;2023-04-24T00:12:11;98457.63;;;14.09;50.17
77685;BME280;66844;46.092;18.268;2023-04-24T00:12:42;98457.75;;;14.08;50.25
77685;BME280;66844;46.092;18.268;2023-04-24T00:13:12;98456.31;;;14.04;50.00
77685;BME280;66844;46.092;18.268;2023-04-24T00:13:43;98452.94;;;14.02;50.50
77685;BME280;66844;46.092;18.268;2023-04-24T00:14:14;98451.38;;;13.99;50.53
77685;BME280;66844;46.092;18.268;2023-04-24T00:14:44;98453.06;;;14.00;50.65
77685;BME280;66844;46.092;18.268;2023-04-24T00:15:15;98458.44;;;14.00;50.75
77685;BME280;66844;46.092;18.268;2023-04-24T00:15:46;98460.53;;;13.97;50.46
77685;BME280;66844;46.092;18.268;2023-04-24T00:16:16;98458.69;;;13.97;50.70
77685;BME280;66844;46.092;18.268;2023-04-24T00:16:47;98465.19;;;13.95;50.56
77685;BME280;66844;46.092;18.268;2023-04-24T00:17:18;98460.78;;;13.94;50.85
77685;BME280;66844;46.092;18.268;2023-04-24T00:17:50;98460.91;;;13.92;51.20
77685;BME280;66844;46.092;18.268;2023-04-24T00:18:22;98456.00;;;13.88;51.36
77685;BME280;66844;46.092;18.268;2023-04-24T00:18:53;98453.31;;;13.88;51.46
77685;BME280;66844;46.092;18.268;2023-04-24T00:19:23;98452.59;;;13.86;51.46
77685;BME280;66844;46.092;18.268;2023-04-24T00:19:54;98461.47;;;13.86;51.46
77685;BME280;66844;46.092;18.268;2023-04-24T00:20:32;98455.41;;;13.84;51.56
77685;BME280;66844;46.092;18.268;2023-04-24T00:21:03;98453.84;;;13.82;51.17
77685;BME280;66844;46.092;18.268;2023-04-24T00:21:35;98449.50;;;13.81;51.28
77685;BME280;66844;46.092;18.268;2023-04-24T00:22:05;98453.16;;;13.80;51.63
77685;BME280;66844;46.092;18.268;2023-04-24T00:22:36;98451.56;;;13.77;51.88
77685;BME280;66844;46.092;18.268;2023-04-24T00:23:07;98453.53;;;13.75;51.91
77685;BME280;66844;46.092;18.268;2023-04-24T00:23:37;98455.34;;;13.75;51.94
77685;BME280;66844;46.092;18.268;2023-04-24T00:24:08;98453.66;;;13.74;52.14
77685;BME280;66844;46.092;18.268;2023-04-24T00:24:41;98459.16;;;13.72;52.16
77685;BME280;66844;46.092;18.268;2023-04-24T00:25:12;98455.50;;;13.73;52.17
77685;BME280;66844;46.092;18.268;2023-04-24T00:25:43;98452.97;;;13.72;52.23
77685;BME280;66844;46.092;18.268;2023-04-24T00:26:13;98457.19;;;13.74;51.95
77685;BME280;66844;46.092;18.268;2023-04-24T00:26:44;98450.00;;;13.75;51.36
77685;BME280;66844;46.092;18.268;2023-04-24T00:27:15;98446.63;;;13.73;51.89
77685;BME280;66844;46.092;18.268;2023-04-24T00:27:45;98444.09;;;13.71;52.34
77685;BME280;66844;46.092;18.268;2023-04-24T00:28:16;98452.00;;;13.73;52.79
77685;BME280;66844;46.092;18.268;2023-04-24T00:28:47;98453.06;;;13.70;52.79
77685;BME280;66844;46.092;18.268;2023-04-24T00:29:17;98445.22;;;13.69;52.62
77685;BME280;66844;46.092;18.268;2023-04-24T00:29:48;98446.06;;;13.69;52.81
77685;BME280;66844;46.092;18.268;2023-04-24T00:30:19;98445.34;;;13.67;52.82
77685;BME280;66844;46.092;18.268;2023-04-24T00:30:49;98450.56;;;13.69;52.47
77685;BME280;66844;46.092;18.268;2023-04-24T00:31:20;98447.88;;;13.69;52.06
77685;BME280;66844;46.092;18.268;2023-04-24T00:31:51;98445.91;;;13.71;51.99
77685;BME280;66844;46.092;18.268;2023-04-24T00:32:22;98448.00;;;13.67;52.59
77685;BME280;66844;46.092;18.268;2023-04-24T00:32:52;98450.81;;;13.66;52.98
77685;BME280;66844;46.092;18.268;2023-04-24T00:33:23;98450.81;;;13.66;53.02
77685;BME280;66844;46.092;18.268;2023-04-24T00:33:53;98449.97;;;13.65;52.74
77685;BME280;66844;46.092;18.268;2023-04-24T00:34:24;98447.44;;;13.64;53.12
77685;BME280;66844;46.092;18.268;2023-04-24T00:34:55;98449.41;;;13.62;52.63
77685;BME280;66844;46.092;18.268;2023-04-24T00:35:26;98449.53;;;13.60;52.75
77685;BME280;66844;46.092;18.268;2023-04-24T00:35:57;98451.22;;;13.61;53.14
77685;BME280;66844;46.092;18.268;2023-04-24T00:36:28;98451.22;;;13.61;52.52
77685;BME280;66844;46.092;18.268;2023-04-24T00:36:58;98447.81;;;13.59;52.93
77685;BME280;66844;46.092;18.268;2023-04-24T00:37:29;98452.19;;;13.60;53.16
77685;BME280;66844;46.092;18.268;2023-04-24T00:38:00;98448.66;;;13.59;52.80
77685;BME280;66844;46.092;18.268;2023-04-24T00:38:31;98450.50;;;13.59;52.84
77685;BME280;66844;46.092;18.268;2023-04-24T00:39:01;98451.50;;;13.58;52.92
77685;BME280;66844;46.092;18.268;2023-04-24T00:39:32;98446.97;;;13.58;52.79
77685;BME280;66844;46.092;18.268;2023-04-24T00:40:04;98451.50;;;13.58;52.67
77685;BME280;66844;46.092;18.268;2023-04-24T00:40:34;98446.25;;;13.56;52.81
77685;BME280;66844;46.092;18.268;2023-04-24T00:41:05;98447.97;;;13.57;52.72
77685;BME280;66844;46.092;18.268;2023-04-24T00:41:36;98448.25;;;13.54;52.78
77685;BME280;66844;46.092;18.268;2023-04-24T00:42:07;98443.72;;;13.55;52.95
77685;BME280;66844;46.092;18.268;2023-04-24T00:42:39;98446.53;;;13.53;52.87
77685;BME280;66844;46.092;18.268;2023-04-24T00:43:12;98451.03;;;13.53;52.89
77685;BME280;66844;46.092;18.268;2023-04-24T00:43:43;98449.31;;;13.52;52.77
77685;BME280;66844;46.092;18.268;2023-04-24T00:44:14;98442.31;;;13.51;52.63
77685;BME280;66844;46.092;18.268;2023-04-24T00:44:45;98445.81;;;13.51;52.68
77685;BME280;66844;46.092;18.268;2023-04-24T00:45:16;98444.13;;;13.50;52.86
77685;BME280;66844;46.092;18.268;2023-04-24T00:45:47;98443.41;;;13.48;52.84
77685;BME280;66844;46.092;18.268;2023-04-24T00:46:18;98443.56;;;13.47;53.08
77685;BME280;66844;46.092;18.268;2023-04-24T00:46:50;98443.56;;;13.47;52.72
77685;BME280;66844;46.092;18.268;2023-04-24T00:47:25;98454.34;;;13.45;53.08
77685;BME280;66844;46.092;18.268;2023-04-24T00:47:56;98442.13;;;13.43;53.29
77685;BME280;66844;46.092;18.268;2023-04-24T00:48:27;98451.81;;;13.44;53.57
77685;BME280;66844;46.092;18.268;2023-04-24T00:48:59;98445.75;;;13.42;52.77
77685;BME280;66844;46.092;18.268;2023-04-24T00:49:30;98446.63;;;13.42;53.11
77685;BME280;66844;46.092;18.268;2023-04-24T00:50:05;98444.31;;;13.38;52.92
77685;BME280;66844;46.092;18.268;2023-04-24T00:50:38;98436.19;;;13.39;52.71
77685;BME280;66844;46.092;18.268;2023-04-24T00:51:09;98443.09;;;13.42;52.63
77685;BME280;66844;46.092;18.268;2023-04-24T00:51:40;98443.09;;;13.42;52.58
77685;BME280;66844;46.092;18.268;2023-04-24T00:52:11;98444.91;;;13.41;52.67
77685;BME280;66844;46.092;18.268;2023-04-24T00:52:42;98442.38;;;13.40;53.02
77685;BME280;66844;46.092;18.268;2023-04-24T00:53:13;98445.28;;;13.37;52.93
77685;BME280;66844;46.092;18.268;2023-04-24T00:53:44;98441.66;;;13.38;52.74
77685;BME280;66844;46.092;18.268;2023-04-24T00:54:15;98439.84;;;13.38;52.41
77685;BME280;66844;46.092;18.268;2023-04-24T00:54:46;98442.50;;;13.38;52.14
77685;BME280;66844;46.092;18.268;2023-04-24T00:55:17;98447.84;;;13.38;52.29
77685;BME280;66844;46.092;18.268;2023-04-24T00:55:48;98444.44;;;13.36;52.40
77685;BME280;66844;46.092;18.268;2023-04-24T00:56:19;98448.81;;;13.37;52.16
77685;BME280;66844;46.092;18.268;2023-04-24T00:56:50;98446.03;;;13.39;52.71
77685;BME280;66844;46.092;18.268;2023-04-24T00:57:21;98455.75;;;13.40;52.88
77685;BME280;66844;46.092;18.268;2023-04-24T00:57:54;98449.56;;;13.39;52.71
77685;BME280;66844;46.092;18.268;2023-04-24T00:58:25;98452.22;;;13.39;52.43
77685;BME280;66844;46.092;18.268;2023-04-24T00:58:57;98449.56;;;13.39;52.91
77685;BME280;66844;46.092;18.268;2023-04-24T00:59:28;98454.03;;;13.39;52.45
77685;BME280;66844;46.092;18.268;2023-04-24T00:59:59;98454.91;;;13.39;52.54
77685;BME280;66844;46.092;18.268;2023-04-24T01:00:30;98456.56;;;13.40;52.76
77685;BME280;66844;46.092;18.268;2023-04-24T01:01:01;98451.22;;;13.40;53.22
77685;BME280;66844;46.092;18.268;2023-04-24T01:01:33;98459.97;;;13.42;52.67
77685;BME280;66844;46.092;18.268;2023-04-24T01:02:04;98452.06;;;13.41;53.29
77685;BME280;66844;46.092;18.268;2023-04-24T01:02:34;98443.22;;;13.40;52.66
77685;BME280;66844;46.092;18.268;2023-04-24T01:03:05;98444.06;;;13.41;52.77
77685;BME280;66844;46.092;18.268;2023-04-24T01:03:37;98449.56;;;13.39;52.23
77685;BME280;66844;46.092;18.268;2023-04-24T01:04:09;98446.03;;;13.39;52.35
77685;BME280;66844;46.092;18.268;2023-04-24T01:04:41;98445.06;;;13.40;51.87
77685;BME280;66844;46.092;18.268;2023-04-24T01:05:14;98444.91;;;13.41;51.39
77685;BME280;66844;46.092;18.268;2023-04-24T01:05:45;98443.22;;;13.40;51.65
77685;BME280;66844;46.092;18.268;2023-04-24T01:06:17;98439.56;;;13.41;51.96
77685;BME280;66844;46.092;18.268;2023-04-24T01:06:49;98445.19;;;13.38;51.83
77685;BME280;66844;46.092;18.268;2023-04-24T01:07:21;98444.31;;;13.38;52.09
77685;BME280;66844;46.092;18.268;2023-04-24T01:07:52;98439.84;;;13.38;52.30
77685;BME280;66844;46.092;18.268;2023-04-24T01:08:24;98441.78;;;13.36;52.48
77685;BME280;66844;46.092;18.268;2023-04-24T01:08:58;98433.66;;;13.38;51.97
77685;BME280;66844;46.092;18.268;2023-04-24T01:09:29;98440.53;;;13.40;52.66
77685;BME280;66844;46.092;18.268;2023-04-24T01:10:00;98436.03;;;13.41;51.97
77685;BME280;66844;46.092;18.268;2023-04-24T01:10:33;98442.97;;;13.43;51.31
77685;BME280;66844;46.092;18.268;2023-04-24T01:11:05;98436.78;;;13.43;51.39
77685;BME280;66844;46.092;18.268;2023-04-24T01:11:37;98436.50;;;13.46;51.56
77685;BME280;66844;46.092;18.268;2023-04-24T01:12:07;98439.31;;;13.44;51.62
77685;BME280;66844;46.092;18.268;2023-04-24T01:12:39;98444.78;;;13.43;51.81
77685;BME280;66844;46.092;18.268;2023-04-24T01:13:10;98428.03;;;13.41;52.02
77685;BME280;66844;46.092;18.268;2023-04-24T01:13:40;98431.69;;;13.40;51.84
77685;BME280;66844;46.092;18.268;2023-04-24T01:14:11;98440.41;;;13.42;51.86
77685;BME280;66844;46.092;18.268;2023-04-24T01:14:42;98440.16;;;13.45;51.46
77685;BME280;66844;46.092;18.268;2023-04-24T01:15:13;98434.81;;;13.45;51.68
77685;BME280;66844;46.092;18.268;2023-04-24T01:15:44;98435.53;;;13.47;51.25
77685;BME280;66844;46.092;18.268;2023-04-24T01:16:15;98431.16;;;13.46;51.38
77685;BME280;66844;46.092;18.268;2023-04-24T01:16:47;98431.28;;;13.44;52.05
77685;BME280;66844;46.092;18.268;2023-04-24T01:17:18;98432.53;;;13.40;52.17
77685;BME280;66844;46.092;18.268;2023-04-24T01:17:48;98432.69;;;13.39;51.92
77685;BME280;66844;46.092;18.268;2023-04-24T01:18:20;98435.19;;;13.40;51.66
77685;BME280;66844;46.092;18.268;2023-04-24T01:18:52;98435.66;;;13.45;51.54
77685;BME280;66844;46.092;18.268;2023-04-24T01:19:23;98434.81;;;13.45;51.60
77685;BME280;66844;46.092;18.268;2023-04-24T01:19:53;98432.41;;;13.42;52.12
77685;BME280;66844;46.092;18.268;2023-04-24T01:20:24;98430.69;;;13.41;52.69
77685;BME280;66844;46.092;18.268;2023-04-24T01:20:58;98437.28;;;13.37;52.68
77685;BME280;66844;46.092;18.268;2023-04-24T01:21:30;98433.19;;;13.33;53.20
77685;BME280;66844;46.092;18.268;2023-04-24T01:22:09;98434.41;;;13.29;53.99
77685;BME280;66844;46.092;18.268;2023-04-24T01:22:41;98440.88;;;13.26;53.96
77685;BME280;66844;46.092;18.268;2023-04-24T01:23:12;98437.63;;;13.23;54.22
77685;BME280;66844;46.092;18.268;2023-04-24T01:23:46;98434.09;;;13.22;54.21
77685;BME280;66844;46.092;18.268;2023-04-24T01:24:17;98436.91;;;13.21;54.68
77685;BME280;66844;46.092;18.268;2023-04-24T01:24:49;98431.97;;;13.16;54.60
77685;BME280;66844;46.092;18.268;2023-04-24T01:25:20;98434.75;;;13.15;54.53
77685;BME280;66844;46.092;18.268;2023-04-24T01:25:51;98435.00;;;13.11;54.29
77685;BME280;66844;46.092;18.268;2023-04-24T01:26:23;98440.34;;;13.11;54.67
77685;BME280;66844;46.092;18.268;2023-04-24T01:26:55;98443.88;;;13.12;54.56
77685;BME280;66844;46.092;18.268;2023-04-24T01:27:27;98442.91;;;13.13;54.36
77685;BME280;66844;46.092;18.268;2023-04-24T01:27:58;98442.91;;;13.13;54.42
77685;BME280;66844;46.092;18.268;2023-04-24T01:28:29;98451.38;;;13.07;55.12
77685;BME280;66844;46.092;18.268;2023-04-24T01:29:00;98443.63;;;13.04;55.04
77685;BME280;66844;46.092;18.268;2023-04-24T01:29:31;98448.19;;;12.92;56.32
77685;BME280;66844;46.092;18.268;2023-04-24T01:30:02;98443.59;;;12.94;56.60
77685;BME280;66844;46.092;18.268;2023-04-24T01:30:33;98435.69;;;12.93;56.28
77685;BME280;66844;46.092;18.268;2023-04-24T01:31:04;98439.09;;;12.95;56.13
77685;BME280;66844;46.092;18.268;2023-04-24T01:31:35;98439.22;;;12.93;56.07
77685;BME280;66844;46.092;18.268;2023-04-24T01:32:06;98444.81;;;12.90;56.25
77685;BME280;66844;46.092;18.268;2023-04-24T01:32:38;98445.78;;;12.89;55.95
77685;BME280;66844;46.092;18.268;2023-04-24T01:33:09;98440.69;;;12.86;56.56
77685;BME280;66844;46.092;18.268;2023-04-24T01:33:41;98439.00;;;12.85;56.86
77685;BME280;66844;46.092;18.268;2023-04-24T01:34:12;98442.63;;;12.84;56.53
77685;BME280;66844;46.092;18.268;2023-04-24T01:34:43;98439.53;;;12.79;57.11
77685;BME280;66844;46.092;18.268;2023-04-24T01:35:15;98428.25;;;12.76;57.17
77685;BME280;66844;46.092;18.268;2023-04-24T01:35:45;98430.19;;;12.74;57.21
77685;BME280;66844;46.092;18.268;2023-04-24T01:36:18;98428.38;;;12.74;57.28
77685;BME280;66844;46.092;18.268;2023-04-24T01:36:49;98430.44;;;12.71;57.01
77685;BME280;66844;46.092;18.268;2023-04-24T01:37:20;98427.66;;;12.72;56.60
77685;BME280;66844;46.092;18.268;2023-04-24T01:37:51;98431.31;;;12.71;57.23
77685;BME280;66844;46.092;18.268;2023-04-24T01:38:22;98423.81;;;12.65;57.57
77685;BME280;66844;46.092;18.268;2023-04-24T01:38:52;98426.47;;;12.65;57.56
77685;BME280;66844;46.092;18.268;2023-04-24T01:39:23;98431.09;;;12.63;57.74
77685;BME280;66844;46.092;18.268;2023-04-24T01:39:56;98422.50;;;12.59;57.48
77685;BME280;66844;46.092;18.268;2023-04-24T01:40:26;98425.91;;;12.61;57.43
77685;BME280;66844;46.092;18.268;2023-04-24T01:40:58;98429.53;;;12.60;57.60
77685;BME280;66844;46.092;18.268;2023-04-24T01:41:29;98422.88;;;12.55;58.62
77685;BME280;66844;46.092;18.268;2023-04-24T01:42:00;98420.34;;;12.53;58.41
77685;BME280;66844;46.092;18.268;2023-04-24T01:42:34;98415.00;;;12.53;58.11
77685;BME280;66844;46.092;18.268;2023-04-24T01:43:05;98411.59;;;12.51;58.53
77685;BME280;66844;46.092;18.268;2023-04-24T01:43:36;98427.50;;;12.53;58.93
77685;BME280;66844;46.092;18.268;2023-04-24T01:44:07;98423.25;;;12.50;59.07
77685;BME280;66844;46.092;18.268;2023-04-24T01:44:38;98431.13;;;12.52;58.66
77685;BME280;66844;46.092;18.268;2023-04-24T01:45:11;98422.16;;;12.53;57.92
77685;BME280;66844;46.092;18.268;2023-04-24T01:45:42;98418.63;;;12.52;58.87
77685;BME280;66844;46.092;18.268;2023-04-24T01:46:13;98421.56;;;12.49;58.76
77685;BME280;66844;46.092;18.268;2023-04-24T01:46:44;98415.75;;;12.44;59.64
77685;BME280;66844;46.092;18.268;2023-04-24T01:47:15;98420.63;;;12.39;59.53
77685;BME280;66844;46.092;18.268;2023-04-24T01:47:46;98420.63;;;12.39;59.47
77685;BME280;66844;46.092;18.268;2023-04-24T01:48:18;98419.19;;;12.35;60.29
77685;BME280;66844;46.092;18.268;2023-04-24T01:48:48;98419.03;;;12.37;59.27
77685;BME280;66844;46.092;18.268;2023-04-24T01:49:19;98412.25;;;12.33;60.44
77685;BME280;66844;46.092;18.268;2023-04-24T01:49:50;98413.38;;;12.30;60.89
77685;BME280;66844;46.092;18.268;2023-04-24T01:50:21;98415.44;;;12.27;60.70
77685;BME280;66844;46.092;18.268;2023-04-24T01:50:52;98424.28;;;12.27;60.98
77685;BME280;66844;46.092;18.268;2023-04-24T01:51:22;98415.44;;;12.27;61.14
77685;BME280;66844;46.092;18.268;2023-04-24T01:51:53;98410.97;;;12.27;60.08
77685;BME280;66844;46.092;18.268;2023-04-24T01:52:24;98414.22;;;12.31;59.36
77685;BME280;66844;46.092;18.268;2023-04-24T01:52:55;98411.56;;;12.31;58.97
77685;BME280;66844;46.092;18.268;2023-04-24T01:53:25;98412.03;;;12.25;60.63
77685;BME280;66844;46.092;18.268;2023-04-24T01:53:56;98409.50;;;12.23;59.62
77685;BME280;66844;46.092;18.268;2023-04-24T01:54:27;98412.78;;;12.27;59.29
77685;BME280;66844;46.092;18.268;2023-04-24T01:55:00;98410.22;;;12.25;59.33
77685;BME280;66844;46.092;18.268;2023-04-24T01:55:31;98406.47;;;12.28;58.56
77685;BME280;66844;46.092;18.268;2023-04-24T01:56:02;98406.06;;;12.32;58.46
77685;BME280;66844;46.092;18.268;2023-04-24T01:56:34;98405.25;;;12.32;58.16
77685;BME280;66844;46.092;18.268;2023-04-24T01:57:07;98405.38;;;12.30;58.17
77685;BME280;66844;46.092;18.268;2023-04-24T01:57:38;98407.63;;;12.46;57.42
77685;BME280;66844;46.092;18.268;2023-04-24T01:58:09;98414.09;;;12.64;56.66
77685;BME280;66844;46.092;18.268;2023-04-24T01:58:39;98417.00;;;12.72;56.62
77685;BME280;66844;46.092;18.268;2023-04-24T01:59:11;98404.44;;;12.84;55.92
77685;BME280;66844;46.092;18.268;2023-04-24T01:59:42;98413.03;;;12.87;55.97
77685;BME280;66844;46.092;18.268;2023-04-24T02:00:13;98416.72;;;12.75;56.28
77685;BME280;66844;46.092;18.268;2023-04-24T02:00:43;98398.81;;;12.66;56.75
77685;BME280;66844;46.092;18.268;2023-04-24T02:01:20;98414.91;;;12.76;56.28
77685;BME280;66844;46.092;18.268;2023-04-24T02:01:51;98411.97;;;12.79;56.59
77685;BME280;66844;46.092;18.268;2023-04-24T02:02:22;98412.88;;;12.89;56.18
77685;BME280;66844;46.092;18.268;2023-04-24T02:02:54;98410.22;;;12.89;56.56
77685;BME280;66844;46.092;18.268;2023-04-24T02:03:25;98410.50;;;12.86;56.40
77685;BME280;66844;46.092;18.268;2023-04-24T02:03:56;98411.72;;;12.82;57.09
77685;BME280;66844;46.092;18.268;2023-04-24T02:04:27;98413.31;;;12.73;57.24
77685;BME280;66844;46.092;18.268;2023-04-24T02:04:57;98412.09;;;12.77;57.05
77685;BME280;66844;46.092;18.268;2023-04-24T02:05:28;98403.75;;;12.71;57.06
77685;BME280;66844;46.092;18.268;2023-04-24T02:05:59;98406.31;;;12.72;56.77
77685;BME280;66844;46.092;18.268;2023-04-24T02:06:29;98405.41;;;12.83;56.70
77685;BME280;66844;46.092;18.268;2023-04-24T02:07:01;98409.91;;;12.82;56.62
77685;BME280;66844;46.092;18.268;2023-04-24T02:07:32;98407.59;;;12.78;57.05
77685;BME280;66844;46.092;18.268;2023-04-24T02:08:03;98410.06;;;12.70;57.50
77685;BME280;66844;46.092;18.268;2023-04-24T02:08:33;98406.31;;;12.72;56.90
77685;BME280;66844;46.092;18.268;2023-04-24T02:09:04;98405.69;;;12.80;56.81
77685;BME280;66844;46.092;18.268;2023-04-24T02:09:35;98410.88;;;12.81;56.94
77685;BME280;66844;46.092;18.268;2023-04-24T02:10:06;98406.66;;;12.79;57.25
77685;BME280;66844;46.092;18.268;2023-04-24T02:10:36;98403.66;;;12.72;57.10
77685;BME280;66844;46.092;18.268;2023-04-24T02:11:10;98401.31;;;12.79;56.78
77685;BME280;66844;46.092;18.268;2023-04-24T02:11:40;98399.38;;;12.70;57.55
77685;BME280;66844;46.092;18.268;2023-04-24T02:12:11;98402.78;;;12.72;57.62
77685;BME280;66844;46.092;18.268;2023-04-24T02:12:42;98397.31;;;12.73;57.12
77685;BME280;66844;46.092;18.268;2023-04-24T02:13:12;98399.66;;;12.67;57.60
77685;BME280;66844;46.092;18.268;2023-04-24T02:13:43;98402.59;;;12.63;57.69
77685;BME280;66844;46.092;18.268;2023-04-24T02:14:14;98399.22;;;12.61;58.06
77685;BME280;66844;46.092;18.268;2023-04-24T02:14:44;98402.31;;;12.67;57.68
77685;BME280;66844;46.092;18.268;2023-04-24T02:15:15;98400.78;;;12.64;57.82
77685;BME280;66844;46.092;18.268;2023-04-24T02:15:46;98392.81;;;12.74;57.21
77685;BME280;66844;46.092;18.268;2023-04-24T02:16:17;98400.19;;;12.81;56.73
77685;BME280;66844;46.092;18.268;2023-04-24T02:16:47;98399.59;;;12.78;57.08
77685;BME280;66844;46.092;18.268;2023-04-24T02:17:18;98403.06;;;12.69;57.98
77685;BME280;66844;46.092;18.268;2023-04-24T02:17:49;98392.28;;;12.59;58.54
77685;BME280;66844;46.092;18.268;2023-04-24T02:18:20;98395.53;;;12.62;57.78
77685;BME280;66844;46.092;18.268;2023-04-24T02:18:51;98400.34;;;12.80;56.84
77685;BME280;66844;46.092;18.268;2023-04-24T02:19:21;98394.91;;;12.70;57.83
77685;BME280;66844;46.092;18.268;2023-04-24T02:19:52;98397.56;;;12.70;57.77
77685;BME280;66844;46.092;18.268;2023-04-24T02:20:23;98389.31;;;12.73;57.95
77685;BME280;66844;46.092;18.268;2023-04-24T02:20:53;98394.19;;;12.68;57.85
77685;BME280;66844;46.092;18.268;2023-04-24T02:21:24;98388.59;;;12.71;57.94
77685;BME280;66844;46.092;18.268;2023-04-24T02:21:55;98399.38;;;12.70;57.53
77685;BME280;66844;46.092;18.268;2023-04-24T02:22:26;98393.34;;;12.68;58.15
77685;BME280;66844;46.092;18.268;2023-04-24T02:22:57;98399.53;;;12.68;57.98
77685;BME280;66844;46.092;18.268;2023-04-24T02:23:27;98394.66;;;12.73;56.90
77685;BME280;66844;46.092;18.268;2023-04-24T02:23:58;98390.31;;;12.72;57.14
77685;BME280;66844;46.092;18.268;2023-04-24T02:24:29;98397.94;;;12.65;58.42
77685;BME280;66844;46.092;18.268;2023-04-24T02:25:00;98391.78;;;12.65;57.81
77685;BME280;66844;46.092;18.268;2023-04-24T02:25:31;98392.25;;;12.70;57.36
77685;BME280;66844;46.092;18.268;2023-04-24T02:26:01;98391.66;;;12.67;57.73
77685;BME280;66844;46.092;18.268;2023-04-24T02:26:32;98394.78;;;12.72;57.34
77685;BME280;66844;46.092;18.268;2023-04-24T02:27:03;98391.22;;;12.61;58.43
77685;BME280;66844;46.092;18.268;2023-04-24T02:27:34;98395.06;;;12.69;57.66
77685;BME280;66844;46.092;18.268;2023-04-24T02:28:04;98391.47;;;12.79;56.98
77685;BME280;66844;46.092;18.268;2023-04-24T02:28:35;98391.16;;;12.73;56.97
77685;BME280;66844;46.092;18.268;2023-04-24T02:29:05;98394.78;;;12.72;57.35
77685;BME280;66844;46.092;18.268;2023-04-24T02:29:36;98394.25;;;12.78;56.36
77685;BME280;66844;46.092;18.268;2023-04-24T02:30:07;98394.75;;;12.83;56.62
77685;BME280;66844;46.092;18.268;2023-04-24T02:30:38;98388.34;;;12.74;57.14
77685;BME280;66844;46.092;18.268;2023-04-24T02:31:09;98391.53;;;12.68;57.75
77685;BME280;66844;46.092;18.268;2023-04-24T02:31:39;98385.66;;;12.74;56.96
77685;BME280;66844;46.092;18.268;2023-04-24T02:32:10;98390.03;;;12.75;57.26
77685;BME280;66844;46.092;18.268;2023-04-24T02:32:42;98395.97;;;12.79;56.80
77685;BME280;66844;46.092;18.268;2023-04-24T02:33:12;98392.91;;;12.83;56.36
77685;BME280;66844;46.092;18.268;2023-04-24T02:33:43;98397.66;;;12.80;56.84
77685;BME280;66844;46.092;18.268;2023-04-24T02:34:14;98393.81;;;12.73;57.76
77685;BME280;66844;46.092;18.268;2023-04-24T02:34:45;98396.09;;;12.77;56.90
77685;BME280;66844;46.092;18.268;2023-04-24T02:35:15;98388.88;;;12.68;57.73
77685;BME280;66844;46.092;18.268;2023-04-24T02:35:46;98395.63;;;12.72;57.35
77685;BME280;66844;46.092;18.268;2023-04-24T02:36:17;98390.03;;;12.75;56.58
77685;BME280;66844;46.092;18.268;2023-04-24T02:36:47;98383.47;;;12.79;57.36
77685;BME280;66844;46.092;18.268;2023-04-24T02:37:19;98387.59;;;12.83;56.57
77685;BME280;66844;46.092;18.268;2023-04-24T02:37:49;98389.13;;;12.86;56.62
77685;BME280;66844;46.092;18.268;2023-04-24T02:38:20;98389.00;;;12.87;56.38
77685;BME280;66844;46.092;18.268;2023-04-24T02:38:51;98388.53;;;12.82;56.45
77685;BME280;66844;46.092;18.268;2023-04-24T02:39:21;98377.94;;;12.71;57.14
77685;BME280;66844;46.092;18.268;2023-04-24T02:39:52;98385.66;;;12.74;56.75
77685;BME280;66844;46.092;18.268;2023-04-24T02:40:23;98384.69;;;12.75;57.26
77685;BME280;66844;46.092;18.268;2023-04-24T02:40:54;98394.41;;;12.76;56.83
77685;BME280;66844;46.092;18.268;2023-04-24T02:41:24;98387.06;;;12.69;57.34
77685;BME280;66844;46.092;18.268;2023-04-24T02:41:55;98385.97;;;12.60;58.19
77685;BME280;66844;46.092;18.268;2023-04-24T02:42:25;98390.00;;;12.54;58.31
77685;BME280;66844;46.092;18.268;2023-04-24T02:42:56;98391.09;;;12.52;57.96